Time;durP1;ratioP1;P1;durP2;ratioP2;P2;SDS_P1;SDS_P2;PMS_P1;PMS_P2;Temp;Humidity;BMP_temperature;BMP_pressure;BME280_temperature;BME280_humidity;BME280_pressure;Samples;Min_cycle;Max_cycle;Signal;HPM_P1;HPM_P2
2022/11/02 00:00:42;;;;;;;7.53;1.50;;;;;;;;;;5095363;28;20044;-69
2022/11/02 00:03:08;;;;;;;7.88;1.98;;;;;;;;;;5089754;28;20051;-67
2022/11/02 00:05:34;;;;;;;6.35;1.73;;;;;;;;;;5094687;28;20222;-68
2022/11/02 00:08:00;;;;;;;9.02;1.77;;;;;;;;;;5086918;28;20048;-68
2022/11/02 00:10:28;;;;;;;7.35;1.80;;;;;;;;;;5093275;28;20072;-68
2022/11/02 00:12:54;;;;;;;10.50;1.73;;;;;;;;;;5090482;28;20048;-68
2022/11/02 00:15:20;;;;;;;9.40;2.15;;;;;;;;;;5093267;28;20046;-66
2022/11/02 00:17:48;;;;;;;8.15;1.63;;;;;;;;;;5097210;28;20044;-68
2022/11/02 00:20:15;;;;;;;8.77;2.05;;;;;;;;;;5092604;28;20043;-69
2022/11/02 00:22:41;;;;;;;7.35;1.88;;;;;;;;;;5090950;28;20458;-70
2022/11/02 00:25:11;;;;;;;9.38;1.90;;;;;;;;;;5090227;28;20088;-68
2022/11/02 00:27:38;;;;;;;7.82;1.63;;;;;;;;;;5090988;28;20048;-69
2022/11/02 00:30:04;;;;;;;8.50;1.75;;;;;;;;;;5094040;28;20400;-71
2022/11/02 00:32:30;;;;;;;13.80;1.90;;;;;;;;;;5098036;28;20494;-70
2022/11/02 00:34:56;;;;;;;10.52;1.95;;;;;;;;;;5090825;28;20047;-70
2022/11/02 00:37:22;;;;;;;9.68;2.00;;;;;;;;;;5094224;28;20187;-68
2022/11/02 00:39:48;;;;;;;13.95;2.13;;;;;;;;;;5094162;28;20093;-69
2022/11/02 00:42:15;;;;;;;7.97;1.63;;;;;;;;;;5093391;28;20046;-70
2022/11/02 00:44:41;;;;;;;13.65;2.35;;;;;;;;;;5095422;28;20439;-73
2022/11/02 00:47:07;;;;;;;7.95;1.95;;;;;;;;;;5091027;28;20058;-70
2022/11/02 00:49:33;;;;;;;11.70;2.53;;;;;;;;;;5090047;28;20048;-70
2022/11/02 00:51:59;;;;;;;12.13;2.05;;;;;;;;;;5093979;28;20973;-71
2022/11/02 00:54:25;;;;;;;14.35;2.10;;;;;;;;;;5089548;28;20123;-70
2022/11/02 00:56:51;;;;;;;10.32;2.30;;;;;;;;;;5094239;28;20044;-69
2022/11/02 00:59:17;;;;;;;9.52;2.20;;;;;;;;;;5090462;28;20043;-72
2022/11/02 01:01:46;;;;;;;11.52;1.88;;;;;;;;;;5093901;28;20050;-70
2022/11/02 01:04:19;;;;;;;11.10;2.17;;;;;;;;;;5090253;28;20336;-71
2022/11/02 01:06:45;;;;;;;11.57;2.80;;;;;;;;;;5099465;27;20129;-71
2022/11/02 01:09:12;;;;;;;10.60;2.50;;;;;;;;;;5089880;28;20126;-71
2022/11/02 01:11:39;;;;;;;11.73;2.47;;;;;;;;;;5093705;27;20513;-69
2022/11/02 01:14:05;;;;;;;13.65;2.13;;;;;;;;;;5092662;28;20052;-68
2022/11/02 01:16:31;;;;;;;11.60;2.13;;;;;;;;;;5095233;28;20151;-69
2022/11/02 01:18:57;;;;;;;12.88;2.35;;;;;;;;;;5097488;27;20047;-69
2022/11/02 01:21:24;;;;;;;13.02;2.53;;;;;;;;;;5096960;27;20126;-69
2022/11/02 01:23:50;;;;;;;15.43;2.70;;;;;;;;;;5094900;27;20097;-69
2022/11/02 01:26:16;;;;;;;12.68;2.67;;;;;;;;;;5095237;27;20043;-71
2022/11/02 01:28:42;;;;;;;15.60;3.03;;;;;;;;;;5097172;27;20084;-72
2022/11/02 01:31:09;;;;;;;14.30;2.90;;;;;;;;;;5093319;27;20887;-69
2022/11/02 01:33:35;;;;;;;12.55;2.50;;;;;;;;;;5095423;27;20093;-70
2022/11/02 01:36:05;;;;;;;12.75;2.63;;;;;;;;;;5094743;28;20039;-70
2022/11/02 01:38:31;;;;;;;11.95;2.50;;;;;;;;;;5090359;27;20063;-71
2022/11/02 01:40:58;;;;;;;12.38;2.60;;;;;;;;;;5093322;27;20050;-69
2022/11/02 01:43:25;;;;;;;16.52;2.47;;;;;;;;;;5092455;27;20144;-70
2022/11/02 01:45:58;;;;;;;16.48;2.60;;;;;;;;;;5094395;27;20145;-70
2022/11/02 01:48:36;;;;;;;14.18;2.58;;;;;;;;;;5095043;27;20042;-70
2022/11/02 01:51:05;;;;;;;14.45;2.70;;;;;;;;;;5097609;27;20050;-69
2022/11/02 01:53:31;;;;;;;13.50;2.72;;;;;;;;;;5093838;27;20694;-67
2022/11/02 01:55:58;;;;;;;17.08;2.83;;;;;;;;;;5098028;27;20043;-68
2022/11/02 01:58:24;;;;;;;11.52;2.38;;;;;;;;;;5098945;27;20502;-71
2022/11/02 02:00:50;;;;;;;12.18;2.45;;;;;;;;;;5093676;27;20051;-69
2022/11/02 02:03:17;;;;;;;13.45;2.60;;;;;;;;;;5094407;27;20066;-70
2022/11/02 02:06:03;;;;;;;13.45;2.97;;;;;;;;;;5092538;27;20046;-70
2022/11/02 02:08:31;;;;;;;13.93;2.35;;;;;;;;;;5084400;27;20039;-68
2022/11/02 02:10:57;;;;;;;14.50;2.90;;;;;;;;;;5094817;27;20128;-69
2022/11/02 02:13:25;;;;;;;11.50;2.50;;;;;;;;;;5098029;27;20064;-68
2022/11/02 02:16:01;;;;;;;12.55;2.70;;;;;;;;;;5094924;27;20052;-69
2022/11/02 02:18:39;;;;;;;11.82;2.97;;;;;;;;;;5091242;28;20047;-67
2022/11/02 02:21:11;;;;;;;9.52;2.40;;;;;;;;;;5087766;27;20059;-68
2022/11/02 02:24:04;;;;;;;8.25;2.08;;;;;;;;;;5092311;28;20495;-68
2022/11/02 02:26:30;;;;;;;9.18;2.08;;;;;;;;;;5062236;28;20539;-71
2022/11/02 02:28:59;;;;;;;10.20;2.28;;;;;;;;;;5089984;27;20064;-73
2022/11/02 02:31:42;;;;;;;7.25;1.85;;;;;;;;;;5096666;27;20131;-69
2022/11/02 02:34:17;;;;;;;7.00;1.65;;;;;;;;;;5091850;27;20044;-72
2022/11/02 02:36:51;;;;;;;7.32;1.70;;;;;;;;;;5091328;27;20071;-72
2022/11/02 02:39:22;;;;;;;8.55;1.60;;;;;;;;;;5091797;27;20055;-69
2022/11/02 02:41:54;;;;;;;4.72;1.67;;;;;;;;;;5091026;27;20036;-71
2022/11/02 02:44:21;;;;;;;8.38;1.80;;;;;;;;;;5094113;27;20048;-68
2022/11/02 02:46:52;;;;;;;11.43;2.28;;;;;;;;;;5090072;27;20047;-69
2022/11/02 02:49:21;;;;;;;7.63;2.35;;;;;;;;;;5089332;27;20560;-72
2022/11/02 02:51:47;;;;;;;7.28;1.67;;;;;;;;;;5089579;27;20054;-70
2022/11/02 02:54:19;;;;;;;9.85;2.15;;;;;;;;;;5093390;27;20054;-67
2022/11/02 02:56:48;;;;;;;9.50;2.20;;;;;;;;;;5091192;27;20040;-70
2022/11/02 02:59:18;;;;;;;5.75;1.63;;;;;;;;;;5092092;27;20055;-70
2022/11/02 03:01:44;;;;;;;6.15;1.52;;;;;;;;;;5089461;27;20051;-71
2022/11/02 03:04:14;;;;;;;6.95;2.03;;;;;;;;;;5089956;27;20433;-68
2022/11/02 03:06:46;;;;;;;10.20;1.60;;;;;;;;;;5093389;27;20526;-70
2022/11/02 03:09:32;;;;;;;6.77;1.93;;;;;;;;;;5094396;27;20097;-70
2022/11/02 03:12:22;;;;;;;6.78;1.50;;;;;;;;;;5092885;27;20039;-69
2022/11/02 03:15:00;;;;;;;7.25;1.75;;;;;;;;;;5094978;27;20085;-69
2022/11/02 03:17:39;;;;;;;9.88;1.60;;;;;;;;;;5091456;28;20054;-70
2022/11/02 03:20:14;;;;;;;8.55;1.67;;;;;;;;;;5090448;28;20031;-71
2022/11/02 03:22:43;;;;;;;6.90;1.40;;;;;;;;;;5089342;27;20043;-69
2022/11/02 03:25:21;;;;;;;5.72;1.27;;;;;;;;;;5093235;27;20044;-69
2022/11/02 03:28:03;;;;;;;6.55;1.38;;;;;;;;;;5091212;27;20178;-69
2022/11/02 03:30:31;;;;;;;5.57;1.17;;;;;;;;;;5093435;27;20126;-70
2022/11/02 03:33:07;;;;;;;4.57;1.15;;;;;;;;;;5079130;28;20047;-69
2022/11/02 03:35:36;;;;;;;6.35;1.70;;;;;;;;;;5092125;27;20046;-70
2022/11/02 03:38:13;;;;;;;8.35;1.55;;;;;;;;;;5099415;28;20595;-68
2022/11/02 03:40:42;;;;;;;7.50;1.30;;;;;;;;;;5106326;27;20040;-68
2022/11/02 03:43:09;;;;;;;6.85;1.25;;;;;;;;;;5099890;28;20127;-67
2022/11/02 03:45:37;;;;;;;5.60;1.38;;;;;;;;;;5099626;28;20485;-67
2022/11/02 03:48:05;;;;;;;8.40;1.50;;;;;;;;;;5102255;28;20051;-67
2022/11/02 03:50:32;;;;;;;10.55;1.70;;;;;;;;;;5103721;28;20394;-68
2022/11/02 03:53:01;;;;;;;7.10;1.30;;;;;;;;;;5109700;28;20155;-67
2022/11/02 03:55:35;;;;;;;8.93;1.52;;;;;;;;;;5103525;28;20063;-71
2022/11/02 03:58:01;;;;;;;7.25;1.50;;;;;;;;;;5097547;28;20055;-68
2022/11/02 04:00:30;;;;;;;10.85;1.65;;;;;;;;;;5104900;28;20109;-67
2022/11/02 04:02:58;;;;;;;9.88;1.80;;;;;;;;;;5104734;28;20561;-70
2022/11/02 04:05:28;;;;;;;6.93;1.67;;;;;;;;;;5106401;28;20444;-68
2022/11/02 04:14:36;;;;;;;4.35;1.33;;;;;;;;;;5108090;28;20047;-69
2022/11/02 04:16:09;;;;;;;5.40;1.58;;;;;;;;;;5108706;28;20047;-70
2022/11/02 04:21:20;;;;;;;7.80;1.75;;;;;;;;;;5109825;28;20039;-68
2022/11/02 04:26:30;;;;;;;10.13;1.90;;;;;;;;;;5106746;28;20051;-69
2022/11/02 04:28:56;;;;;;;6.28;1.70;;;;;;;;;;5095112;28;20406;-69
2022/11/02 04:31:22;;;;;;;5.65;1.60;;;;;;;;;;5116141;28;20051;-69
2022/11/02 04:33:48;;;;;;;5.18;1.50;;;;;;;;;;5106049;27;20050;-69
2022/11/02 04:36:14;;;;;;;9.20;2.13;;;;;;;;;;5098214;28;20040;-69
2022/11/02 04:38:40;;;;;;;8.63;2.70;;;;;;;;;;5104631;28;20048;-69
2022/11/02 04:43:54;;;;;;;9.18;2.28;;;;;;;;;;5100457;28;20036;-69
2022/11/02 04:46:21;;;;;;;6.20;1.60;;;;;;;;;;5106001;27;20047;-69
2022/11/02 04:48:47;;;;;;;13.63;2.20;;;;;;;;;;5107079;27;20048;-70
2022/11/02 04:51:14;;;;;;;7.63;1.80;;;;;;;;;;5106924;27;20121;-69
2022/11/02 04:53:40;;;;;;;9.85;1.95;;;;;;;;;;5109211;27;20044;-70
2022/11/02 04:56:06;;;;;;;8.52;2.08;;;;;;;;;;5099377;28;20043;-70
2022/11/02 04:58:32;;;;;;;10.65;2.00;;;;;;;;;;5116340;27;20035;-69
2022/11/02 05:00:58;;;;;;;11.07;2.00;;;;;;;;;;5107849;28;20048;-69
2022/11/02 05:03:23;;;;;;;10.15;2.25;;;;;;;;;;5115243;27;20077;-69
2022/11/02 05:05:54;;;;;;;8.80;1.90;;;;;;;;;;5107376;27;20040;-70
2022/11/02 05:08:20;;;;;;;9.32;2.20;;;;;;;;;;5102461;27;20046;-69
2022/11/02 05:10:46;;;;;;;10.43;1.95;;;;;;;;;;5109267;28;20172;-68
2022/11/02 05:13:12;;;;;;;9.38;2.10;;;;;;;;;;5107476;27;20048;-69
2022/11/02 05:15:38;;;;;;;9.57;2.13;;;;;;;;;;5114505;27;20070;-68
2022/11/02 05:18:04;;;;;;;11.50;2.20;;;;;;;;;;5105508;28;20071;-69
2022/11/02 05:20:30;;;;;;;11.57;2.03;;;;;;;;;;5103643;27;20079;-69
2022/11/02 05:22:56;;;;;;;11.20;2.00;;;;;;;;;;5103415;28;20051;-69
2022/11/02 05:25:22;;;;;;;10.82;2.35;;;;;;;;;;5104788;27;20110;-69
2022/11/02 05:27:48;;;;;;;14.25;2.47;;;;;;;;;;5086135;28;20038;-70
2022/11/02 05:30:14;;;;;;;13.60;2.30;;;;;;;;;;5103415;27;20044;-70
2022/11/02 05:32:40;;;;;;;9.65;2.28;;;;;;;;;;5117009;27;20050;-70
2022/11/02 05:35:06;;;;;;;12.00;2.95;;;;;;;;;;5104289;28;20051;-69
2022/11/02 05:37:32;;;;;;;11.63;2.53;;;;;;;;;;5112626;27;20092;-70
2022/11/02 05:39:58;;;;;;;14.50;2.50;;;;;;;;;;5110753;27;20043;-71
2022/11/02 05:42:24;;;;;;;10.10;2.65;;;;;;;;;;5111504;27;20405;-71
2022/11/02 05:44:50;;;;;;;10.38;2.45;;;;;;;;;;5098016;28;20512;-71
2022/11/02 05:47:16;;;;;;;11.00;2.45;;;;;;;;;;5109070;27;20047;-71
2022/11/02 05:49:42;;;;;;;21.60;3.25;;;;;;;;;;5112205;27;20055;-72
2022/11/02 05:52:08;;;;;;;15.32;3.53;;;;;;;;;;5113366;27;20067;-72
2022/11/02 05:54:34;;;;;;;13.00;2.78;;;;;;;;;;5107391;28;20047;-70
2022/11/02 05:57:00;;;;;;;17.50;2.88;;;;;;;;;;5105432;28;20040;-72
2022/11/02 05:59:26;;;;;;;12.55;2.45;;;;;;;;;;5110983;27;20120;-72
2022/11/02 06:01:52;;;;;;;16.85;3.42;;;;;;;;;;5103241;27;20130;-73
2022/11/02 06:04:18;;;;;;;14.93;2.92;;;;;;;;;;5098995;27;21556;-74
2022/11/02 06:06:44;;;;;;;14.13;3.08;;;;;;;;;;5102255;28;20043;-73
2022/11/02 06:09:10;;;;;;;18.67;3.17;;;;;;;;;;5103034;27;20130;-73
2022/11/02 06:11:36;;;;;;;19.95;3.30;;;;;;;;;;5100299;27;20074;-73
2022/11/02 06:14:02;;;;;;;11.98;2.83;;;;;;;;;;5103471;27;20055;-72
2022/11/02 06:16:29;;;;;;;12.00;2.60;;;;;;;;;;5097344;28;20039;-72
2022/11/02 06:18:55;;;;;;;13.02;2.53;;;;;;;;;;5095871;28;20085;-70
2022/11/02 06:21:21;;;;;;;14.32;3.22;;;;;;;;;;5078922;27;20047;-69
2022/11/02 06:23:47;;;;;;;16.95;3.03;;;;;;;;;;5106131;27;20150;-69
2022/11/02 06:26:14;;;;;;;11.80;3.20;;;;;;;;;;5104960;27;20459;-69
2022/11/02 06:28:40;;;;;;;16.60;3.25;;;;;;;;;;5104904;27;20101;-70
2022/11/02 06:31:06;;;;;;;18.65;2.95;;;;;;;;;;5105204;27;20126;-69
2022/11/02 06:33:32;;;;;;;13.10;2.60;;;;;;;;;;5100645;28;20139;-70
2022/11/02 06:35:58;;;;;;;12.23;2.88;;;;;;;;;;5095572;28;20449;-71
2022/11/02 06:38:24;;;;;;;16.75;3.00;;;;;;;;;;5101328;27;20069;-71
2022/11/02 06:40:54;;;;;;;15.05;2.95;;;;;;;;;;5084262;28;20050;-71
2022/11/02 06:43:20;;;;;;;12.93;2.63;;;;;;;;;;5099947;27;20038;-71
2022/11/02 06:45:46;;;;;;;17.90;3.20;;;;;;;;;;5107293;28;20096;-70
2022/11/02 06:48:12;;;;;;;17.48;3.03;;;;;;;;;;5121171;27;20510;-70
2022/11/02 06:50:38;;;;;;;14.32;2.90;;;;;;;;;;5095902;28;20048;-70
2022/11/02 06:53:04;;;;;;;16.58;3.50;;;;;;;;;;5093747;27;20052;-70
2022/11/02 06:55:30;;;;;;;14.30;3.13;;;;;;;;;;5100457;27;20046;-70
2022/11/02 06:57:56;;;;;;;13.20;3.03;;;;;;;;;;5100044;27;20099;-69
2022/11/02 07:00:22;;;;;;;15.48;3.35;;;;;;;;;;5099291;27;20074;-69
2022/11/02 07:02:58;;;;;;;13.40;3.10;;;;;;;;;;5093155;28;20044;-68
2022/11/02 07:05:24;;;;;;;16.67;3.28;;;;;;;;;;5088548;28;20494;-68
2022/11/02 07:07:52;;;;;;;13.32;2.50;;;;;;;;;;5099986;28;20050;-71
2022/11/02 07:10:18;;;;;;;12.60;2.58;;;;;;;;;;5104416;27;20056;-68
2022/11/02 07:12:44;;;;;;;10.85;2.45;;;;;;;;;;5080140;28;20475;-68
2022/11/02 07:15:10;;;;;;;15.82;3.08;;;;;;;;;;5113547;27;20038;-68
2022/11/02 07:17:39;;;;;;;15.27;2.97;;;;;;;;;;5105382;28;20157;-69
2022/11/02 07:20:06;;;;;;;18.70;3.00;;;;;;;;;;5094280;28;20517;-72
2022/11/02 07:22:32;;;;;;;17.13;3.63;;;;;;;;;;5095598;28;20040;-70
2022/11/02 07:24:58;;;;;;;18.83;3.60;;;;;;;;;;5099353;27;20048;-71
2022/11/02 07:27:23;;;;;;;19.45;2.90;;;;;;;;;;5097420;27;20044;-69
2022/11/02 07:29:49;;;;;;;17.77;2.92;;;;;;;;;;5103629;27;20082;-71
2022/11/02 07:32:15;;;;;;;21.40;3.47;;;;;;;;;;5108871;27;20047;-72
2022/11/02 07:34:41;;;;;;;20.70;3.05;;;;;;;;;;5097864;27;20055;-72
2022/11/02 07:37:07;;;;;;;19.85;3.17;;;;;;;;;;5107217;28;20043;-72
2022/11/02 07:39:33;;;;;;;16.05;3.08;;;;;;;;;;5094959;27;20039;-72
2022/11/02 07:42:00;;;;;;;23.88;3.13;;;;;;;;;;5106504;27;20036;-72
2022/11/02 07:44:26;;;;;;;17.67;3.50;;;;;;;;;;5122828;27;20045;-73
2022/11/02 07:46:52;;;;;;;19.65;3.50;;;;;;;;;;5100351;28;20040;-72
2022/11/02 07:49:18;;;;;;;12.68;2.83;;;;;;;;;;5105669;28;20097;-69
2022/11/02 07:51:44;;;;;;;21.77;3.05;;;;;;;;;;5084721;28;20465;-70
2022/11/02 07:54:10;;;;;;;12.77;2.65;;;;;;;;;;5106725;27;20089;-70
2022/11/02 07:56:36;;;;;;;14.52;2.80;;;;;;;;;;5103378;28;20868;-71
2022/11/02 07:59:02;;;;;;;20.33;3.50;;;;;;;;;;5100537;28;20064;-71
2022/11/02 08:01:28;;;;;;;17.77;3.13;;;;;;;;;;5100236;28;20048;-72
2022/11/02 08:03:55;;;;;;;13.18;2.50;;;;;;;;;;5084680;28;20044;-71
2022/11/02 08:06:21;;;;;;;19.15;2.63;;;;;;;;;;5100928;28;20036;-72
2022/11/02 08:08:47;;;;;;;16.48;2.75;;;;;;;;;;5085351;28;20135;-74
2022/11/02 08:11:13;;;;;;;14.82;2.35;;;;;;;;;;5105785;28;20059;-72
2022/11/02 08:13:39;;;;;;;15.65;2.63;;;;;;;;;;5099753;28;20047;-72
2022/11/02 08:16:05;;;;;;;13.20;2.38;;;;;;;;;;5107875;27;20143;-75
2022/11/02 08:18:31;;;;;;;14.25;2.05;;;;;;;;;;5107613;27;20045;-73
2022/11/02 08:20:58;;;;;;;10.82;2.78;;;;;;;;;;5112641;27;20048;-73
2022/11/02 08:23:24;;;;;;;11.07;2.60;;;;;;;;;;5108300;27;20051;-71
2022/11/02 08:25:51;;;;;;;14.63;2.28;;;;;;;;;;5109030;27;20439;-71
2022/11/02 08:28:19;;;;;;;13.15;2.58;;;;;;;;;;5113794;27;20063;-70
2022/11/02 08:30:44;;;;;;;12.85;3.08;;;;;;;;;;5112525;27;20460;-73
2022/11/02 08:33:12;;;;;;;18.42;6.53;;;;;;;;;;5115816;27;20044;-70
2022/11/02 08:35:38;;;;;;;12.05;2.90;;;;;;;;;;5112917;27;20556;-71
2022/11/02 08:38:05;;;;;;;11.88;2.30;;;;;;;;;;5108009;27;20058;-70
2022/11/02 08:40:31;;;;;;;13.43;2.50;;;;;;;;;;5114143;27;20055;-70
2022/11/02 08:43:01;;;;;;;9.73;1.95;;;;;;;;;;5103042;27;20044;-70
2022/11/02 08:45:28;;;;;;;13.75;2.03;;;;;;;;;;5120429;27;20039;-72
2022/11/02 08:47:54;;;;;;;11.20;2.03;;;;;;;;;;5117953;27;20046;-73
2022/11/02 08:50:20;;;;;;;13.05;2.33;;;;;;;;;;5107959;27;20391;-70
2022/11/02 08:52:46;;;;;;;15.57;2.42;;;;;;;;;;5111310;27;20098;-70
2022/11/02 08:55:12;;;;;;;12.23;2.38;;;;;;;;;;5107330;27;20051;-70
2022/11/02 08:57:49;;;;;;;9.27;2.10;;;;;;;;;;5105671;27;20463;-73
2022/11/02 09:00:16;;;;;;;14.52;2.50;;;;;;;;;;5103074;27;20044;-71
2022/11/02 09:02:42;;;;;;;9.88;2.10;;;;;;;;;;5104191;27;20043;-71
2022/11/02 09:05:09;;;;;;;11.95;1.98;;;;;;;;;;5102060;28;20264;-69
2022/11/02 09:07:35;;;;;;;10.07;1.92;;;;;;;;;;5094269;27;20051;-72
2022/11/02 09:10:02;;;;;;;10.85;1.88;;;;;;;;;;5094479;28;20051;-73
2022/11/02 09:12:28;;;;;;;8.10;1.98;;;;;;;;;;5098350;27;20059;-72
2022/11/02 09:14:54;;;;;;;9.05;2.25;;;;;;;;;;5096752;28;20134;-73
2022/11/02 09:17:20;;;;;;;6.15;1.80;;;;;;;;;;5101651;27;20055;-72
2022/11/02 09:19:46;;;;;;;13.25;2.90;;;;;;;;;;5102052;27;20047;-73
2022/11/02 09:22:11;;;;;;;9.63;2.17;;;;;;;;;;5101428;28;20494;-73
2022/11/02 09:24:37;;;;;;;11.48;2.63;;;;;;;;;;5102843;27;20048;-72
2022/11/02 09:27:03;;;;;;;12.07;2.25;;;;;;;;;;5105376;27;20054;-73
2022/11/02 09:29:29;;;;;;;16.33;2.55;;;;;;;;;;5100812;27;20062;-74
2022/11/02 09:31:55;;;;;;;12.98;2.50;;;;;;;;;;5101836;27;20066;-74
2022/11/02 09:34:21;;;;;;;12.60;2.00;;;;;;;;;;5106401;27;20055;-73
2022/11/02 09:36:50;;;;;;;8.55;2.13;;;;;;;;;;5101664;27;20050;-73
2022/11/02 09:39:23;;;;;;;12.02;2.65;;;;;;;;;;5089976;27;20039;-73
2022/11/02 09:42:22;;;;;;;9.48;2.42;;;;;;;;;;5079480;28;20450;-74
2022/11/02 09:45:02;;;;;;;11.45;2.20;;;;;;;;;;5036586;28;20071;-73
2022/11/02 09:47:31;;;;;;;10.52;1.65;;;;;;;;;;5095855;27;20047;-72
2022/11/02 09:50:00;;;;;;;10.65;1.90;;;;;;;;;;5103342;27;20066;-70
2022/11/02 09:52:35;;;;;;;9.88;2.08;;;;;;;;;;5105965;27;20051;-74
2022/11/02 09:55:04;;;;;;;9.45;2.22;;;;;;;;;;5102589;27;20044;-74
2022/11/02 09:57:31;;;;;;;9.35;2.42;;;;;;;;;;5108480;27;20047;-74
2022/11/02 09:59:58;;;;;;;11.93;2.05;;;;;;;;;;5100902;27;20040;-74
2022/11/02 10:02:42;;;;;;;8.30;2.08;;;;;;;;;;5107441;27;20059;-74
2022/11/02 10:05:12;;;;;;;11.45;2.08;;;;;;;;;;5107554;27;20050;-74
2022/11/02 10:08:05;;;;;;;8.77;2.08;;;;;;;;;;5105864;27;20071;-74
2022/11/02 10:10:39;;;;;;;10.55;2.00;;;;;;;;;;5103168;27;20057;-73
2022/11/02 10:13:13;;;;;;;9.35;2.30;;;;;;;;;;5102140;27;20056;-71
2022/11/02 10:15:52;;;;;;;13.48;2.47;;;;;;;;;;5107601;27;20036;-74
2022/11/02 10:18:26;;;;;;;10.52;2.30;;;;;;;;;;5099345;27;20036;-74
2022/11/02 10:20:59;;;;;;;11.88;2.28;;;;;;;;;;5104088;27;20138;-74
2022/11/02 10:23:31;;;;;;;11.13;2.05;;;;;;;;;;5097522;27;20047;-72
2022/11/02 10:25:58;;;;;;;17.52;2.42;;;;;;;;;;5101093;27;20048;-74
2022/11/02 10:28:26;;;;;;;13.48;2.55;;;;;;;;;;5096175;27;20040;-71
2022/11/02 10:30:54;;;;;;;10.52;2.40;;;;;;;;;;5100640;27;20071;-71
2022/11/02 10:33:24;;;;;;;11.80;2.47;;;;;;;;;;5098449;27;20047;-71
2022/11/02 10:36:08;;;;;;;11.93;2.10;;;;;;;;;;5093711;28;20047;-74
2022/11/02 10:38:49;;;;;;;11.35;2.30;;;;;;;;;;5081561;28;20051;-74
2022/11/02 10:41:26;;;;;;;10.88;2.13;;;;;;;;;;5098787;27;20040;-73
2022/11/02 10:44:00;;;;;;;11.57;2.05;;;;;;;;;;5095454;27;20427;-72
2022/11/02 10:46:29;;;;;;;18.30;2.67;;;;;;;;;;5097053;28;20040;-72
2022/11/02 10:49:03;;;;;;;9.82;3.15;;;;;;;;;;5093477;28;20391;-72
2022/11/02 10:51:29;;;;;;;11.90;1.75;;;;;;;;;;5096853;27;20158;-75
2022/11/02 10:53:56;;;;;;;9.38;2.20;;;;;;;;;;5100384;27;20035;-71
2022/11/02 10:56:22;;;;;;;10.20;1.92;;;;;;;;;;5091467;27;20073;-72
2022/11/02 10:58:50;;;;;;;9.02;2.05;;;;;;;;;;5079401;28;20071;-72
2022/11/02 11:01:16;;;;;;;8.45;2.03;;;;;;;;;;5073444;27;20139;-70
2022/11/02 11:03:53;;;;;;;11.55;2.63;;;;;;;;;;5090318;27;20121;-71
2022/11/02 11:06:19;;;;;;;11.65;2.10;;;;;;;;;;5093227;28;20043;-74
2022/11/02 11:08:48;;;;;;;12.60;2.03;;;;;;;;;;5081384;28;20051;-70
2022/11/02 11:11:17;;;;;;;9.02;1.80;;;;;;;;;;5088629;27;20393;-71
2022/11/02 11:13:45;;;;;;;9.45;1.90;;;;;;;;;;5089227;28;20209;-72
2022/11/02 11:16:12;;;;;;;10.50;2.65;;;;;;;;;;5095802;27;20047;-73
2022/11/02 11:18:38;;;;;;;11.80;2.00;;;;;;;;;;5073995;28;20420;-71
2022/11/02 11:21:04;;;;;;;10.30;1.98;;;;;;;;;;5089351;28;20036;-72
2022/11/02 11:23:30;;;;;;;11.23;2.15;;;;;;;;;;5075255;28;20047;-72
2022/11/02 11:25:59;;;;;;;9.07;1.95;;;;;;;;;;5095096;27;20048;-73
2022/11/02 11:28:25;;;;;;;12.95;2.22;;;;;;;;;;5091269;27;20123;-71
2022/11/02 11:31:05;;;;;;;10.88;1.90;;;;;;;;;;5088765;27;20178;-70
2022/11/02 11:33:32;;;;;;;11.38;2.33;;;;;;;;;;5088654;27;20047;-71
2022/11/02 11:35:59;;;;;;;11.38;1.95;;;;;;;;;;5090329;28;20057;-74
2022/11/02 11:38:26;;;;;;;13.48;1.98;;;;;;;;;;5090808;28;20043;-72
2022/11/02 11:40:53;;;;;;;9.05;1.80;;;;;;;;;;5087129;27;21890;-72
2022/11/02 11:43:20;;;;;;;9.43;2.00;;;;;;;;;;5092148;27;20170;-70
2022/11/02 11:46:12;;;;;;;12.23;1.92;;;;;;;;;;5094332;27;20047;-70
2022/11/02 11:48:56;;;;;;;8.00;1.60;;;;;;;;;;5083310;28;20047;-71
2022/11/02 11:51:36;;;;;;;14.15;1.95;;;;;;;;;;5091766;27;20048;-72
2022/11/02 11:54:05;;;;;;;10.00;2.20;;;;;;;;;;5089309;28;20502;-71
2022/11/02 11:56:32;;;;;;;8.85;1.98;;;;;;;;;;5092854;28;20048;-71
2022/11/02 11:58:58;;;;;;;9.60;1.90;;;;;;;;;;5091032;28;20056;-71
2022/11/02 12:01:24;;;;;;;11.63;1.67;;;;;;;;;;5092482;28;20155;-70
2022/11/02 12:03:54;;;;;;;12.25;2.13;;;;;;;;;;5095316;28;20134;-69
2022/11/02 12:06:20;;;;;;;12.25;1.85;;;;;;;;;;5087740;28;20052;-70
2022/11/02 12:09:13;;;;;;;10.00;2.38;;;;;;;;;;5090028;28;20048;-69
2022/11/02 12:11:46;;;;;;;11.10;2.33;;;;;;;;;;5063255;28;20051;-70
2022/11/02 12:14:23;;;;;;;9.18;2.22;;;;;;;;;;5083401;28;20549;-70
2022/11/02 12:16:57;;;;;;;8.65;2.13;;;;;;;;;;5086917;28;20048;-69
2022/11/02 12:19:41;;;;;;;8.70;1.70;;;;;;;;;;5089680;28;20146;-70
2022/11/02 12:22:20;;;;;;;9.75;1.98;;;;;;;;;;5085418;28;20058;-71
2022/11/02 12:24:46;;;;;;;6.72;1.50;;;;;;;;;;5087799;28;21328;-69
2022/11/02 12:27:28;;;;;;;6.65;1.80;;;;;;;;;;5091376;28;20044;-69
2022/11/02 12:30:13;;;;;;;8.27;1.77;;;;;;;;;;5091870;28;20062;-70
2022/11/02 12:32:55;;;;;;;9.38;1.83;;;;;;;;;;5071437;28;20063;-71
2022/11/02 12:35:39;;;;;;;9.95;2.22;;;;;;;;;;5091085;28;20513;-71
2022/11/02 12:38:13;;;;;;;10.32;1.98;;;;;;;;;;5091374;28;20048;-70
2022/11/02 12:40:54;;;;;;;7.15;1.77;;;;;;;;;;5092117;28;20052;-71
2022/11/02 12:43:39;;;;;;;10.00;1.88;;;;;;;;;;5087092;28;20093;-69
2022/11/02 12:46:28;;;;;;;6.22;2.10;;;;;;;;;;5088625;28;20437;-71
2022/11/02 12:48:54;;;;;;;10.05;1.85;;;;;;;;;;5071203;28;20038;-69
2022/11/02 12:51:23;;;;;;;9.55;1.67;;;;;;;;;;5087217;28;20051;-69
2022/11/02 12:54:00;;;;;;;7.65;1.60;;;;;;;;;;5091244;28;20054;-69
2022/11/02 12:56:32;;;;;;;12.85;2.00;;;;;;;;;;5090363;28;20531;-69
2022/11/02 12:58:59;;;;;;;10.15;1.60;;;;;;;;;;5092743;28;20062;-70
2022/11/02 13:01:35;;;;;;;9.35;1.75;;;;;;;;;;5090384;28;20226;-68
2022/11/02 13:04:01;;;;;;;9.20;1.70;;;;;;;;;;5091024;27;20032;-70
2022/11/02 13:06:30;;;;;;;7.47;1.60;;;;;;;;;;5095379;28;20050;-71
2022/11/02 13:09:00;;;;;;;12.50;2.83;;;;;;;;;;5093104;27;20050;-71
2022/11/02 13:11:30;;;;;;;12.15;2.50;;;;;;;;;;5096039;27;20051;-69
2022/11/02 13:13:57;;;;;;;12.05;2.53;;;;;;;;;;5092063;27;20048;-73
2022/11/02 13:16:38;;;;;;;15.02;2.45;;;;;;;;;;5090770;27;20047;-71
2022/11/02 13:19:05;;;;;;;9.70;1.80;;;;;;;;;;5074188;28;20062;-71
2022/11/02 13:21:37;;;;;;;10.45;2.10;;;;;;;;;;5092703;27;20047;-72
2022/11/02 13:24:04;;;;;;;12.15;2.10;;;;;;;;;;5092268;27;20076;-68
2022/11/02 13:26:36;;;;;;;11.32;2.10;;;;;;;;;;5096047;27;20039;-72
2022/11/02 13:29:16;;;;;;;6.80;1.73;;;;;;;;;;5095679;27;21048;-72
2022/11/02 13:31:45;;;;;;;11.68;2.70;;;;;;;;;;5092850;27;20528;-71
2022/11/02 13:34:13;;;;;;;12.65;1.90;;;;;;;;;;5093480;27;20047;-70
2022/11/02 13:36:40;;;;;;;9.63;2.03;;;;;;;;;;5076481;28;20077;-70
2022/11/02 13:39:15;;;;;;;10.50;2.13;;;;;;;;;;5092852;27;20050;-72
2022/11/02 13:41:59;;;;;;;8.43;2.08;;;;;;;;;;5091436;27;20079;-72
2022/11/02 13:44:44;;;;;;;11.80;2.22;;;;;;;;;;5091301;27;20073;-72
2022/11/02 13:47:19;;;;;;;13.45;2.05;;;;;;;;;;5100964;27;20073;-73
2022/11/02 13:49:49;;;;;;;11.02;2.10;;;;;;;;;;5094982;28;20076;-71
2022/11/02 13:52:18;;;;;;;8.85;1.75;;;;;;;;;;5091958;27;20523;-72
2022/11/02 13:54:46;;;;;;;11.73;2.50;;;;;;;;;;5087210;27;20138;-70
2022/11/02 13:57:24;;;;;;;11.57;1.83;;;;;;;;;;5095992;27;20047;-72
2022/11/02 13:59:50;;;;;;;8.10;1.50;;;;;;;;;;5092457;27;20059;-72
2022/11/02 14:02:18;;;;;;;8.63;1.75;;;;;;;;;;5096042;27;20051;-71
2022/11/02 14:04:44;;;;;;;10.38;2.65;;;;;;;;;;5094019;27;20051;-72
2022/11/02 14:07:31;;;;;;;9.88;2.22;;;;;;;;;;5097160;27;20047;-72
2022/11/02 14:09:58;;;;;;;7.95;2.00;;;;;;;;;;5092098;27;21674;-70
2022/11/02 14:12:27;;;;;;;13.15;2.30;;;;;;;;;;5093345;27;20100;-69
2022/11/02 14:15:19;;;;;;;11.35;2.47;;;;;;;;;;5096045;27;20051;-71
2022/11/02 14:17:55;;;;;;;12.93;2.30;;;;;;;;;;5105741;27;20109;-70
2022/11/02 14:20:31;;;;;;;10.85;2.03;;;;;;;;;;5088601;28;20109;-68
2022/11/02 14:23:18;;;;;;;10.77;2.20;;;;;;;;;;5090128;28;20151;-72
2022/11/02 14:26:00;;;;;;;11.75;2.30;;;;;;;;;;5082422;28;20050;-70
2022/11/02 14:28:42;;;;;;;11.65;2.00;;;;;;;;;;5090274;28;20040;-70
2022/11/02 14:31:17;;;;;;;7.88;2.03;;;;;;;;;;5091906;27;20101;-69
2022/11/02 14:34:02;;;;;;;11.30;2.00;;;;;;;;;;5090564;27;20119;-71
2022/11/02 14:36:52;;;;;;;13.13;2.22;;;;;;;;;;5089452;28;20058;-70
2022/11/02 14:39:35;;;;;;;10.90;2.10;;;;;;;;;;5092898;27;20528;-69
2022/11/02 14:42:24;;;;;;;10.38;2.00;;;;;;;;;;5091575;27;20082;-69
2022/11/02 14:44:53;;;;;;;10.18;2.00;;;;;;;;;;5089690;27;20151;-70
2022/11/02 14:47:19;;;;;;;11.00;2.20;;;;;;;;;;5093382;27;20136;-69
2022/11/02 14:49:55;;;;;;;9.80;1.90;;;;;;;;;;5091194;27;20077;-71
2022/11/02 14:52:24;;;;;;;8.77;2.08;;;;;;;;;;5093234;27;20039;-69
2022/11/02 14:55:10;;;;;;;10.80;2.20;;;;;;;;;;5091146;28;20048;-71
2022/11/02 14:57:39;;;;;;;12.13;2.17;;;;;;;;;;5078928;27;20572;-71
2022/11/02 15:00:25;;;;;;;9.02;1.95;;;;;;;;;;5075452;28;20054;-72
2022/11/02 15:02:52;;;;;;;10.23;2.00;;;;;;;;;;5091172;28;20044;-71